sensor_id;sensor_type;location;lat;lon;timestamp;P1;durP1;ratioP1;P2;durP2;ratioP2
42104;SDS011;70664;51.472;5.712;2023-06-24T00:00:08;7.22;;;5.38;;
42104;SDS011;70664;51.472;5.712;2023-06-24T00:02:36;6.30;;;5.47;;
42104;SDS011;70664;51.472;5.712;2023-06-24T00:05:04;7.82;;;5.68;;
42104;SDS011;70664;51.472;5.712;2023-06-24T00:07:31;6.63;;;5.35;;
42104;SDS011;70664;51.472;5.712;2023-06-24T00:10:01;7.57;;;5.40;;
42104;SDS011;70664;51.472;5.712;2023-06-24T00:12:29;8.00;;;5.63;;
42104;SDS011;70664;51.472;5.712;2023-06-24T00:14:54;6.82;;;5.43;;
42104;SDS011;70664;51.472;5.712;2023-06-24T00:17:20;5.90;;;5.32;;
42104;SDS011;70664;51.472;5.712;2023-06-24T00:19:46;7.13;;;5.88;;
42104;SDS011;70664;51.472;5.712;2023-06-24T00:22:12;7.70;;;5.47;;
42104;SDS011;70664;51.472;5.712;2023-06-24T00:24:38;7.53;;;5.57;;
42104;SDS011;70664;51.472;5.712;2023-06-24T00:27:04;8.38;;;5.70;;
42104;SDS011;70664;51.472;5.712;2023-06-24T00:29:31;6.22;;;5.07;;
42104;SDS011;70664;51.472;5.712;2023-06-24T00:31:56;7.82;;;5.32;;
42104;SDS011;70664;51.472;5.712;2023-06-24T00:34:22;6.95;;;5.50;;
42104;SDS011;70664;51.472;5.712;2023-06-24T00:36:48;6.28;;;5.68;;
42104;SDS011;70664;51.472;5.712;2023-06-24T00:39:14;6.78;;;5.30;;
42104;SDS011;70664;51.472;5.712;2023-06-24T00:41:40;5.93;;;5.35;;
42104;SDS011;70664;51.472;5.712;2023-06-24T00:44:06;6.28;;;5.30;;
42104;SDS011;70664;51.472;5.712;2023-06-24T00:46:32;6.18;;;5.57;;
42104;SDS011;70664;51.472;5.712;2023-06-24T00:48:59;6.00;;;5.40;;
42104;SDS011;70664;51.472;5.712;2023-06-24T00:51:28;7.25;;;5.93;;
42104;SDS011;70664;51.472;5.712;2023-06-24T00:53:58;7.05;;;5.90;;
42104;SDS011;70664;51.472;5.712;2023-06-24T00:56:25;6.25;;;5.55;;
42104;SDS011;70664;51.472;5.712;2023-06-24T00:59:00;5.85;;;5.20;;
42104;SDS011;70664;51.472;5.712;2023-06-24T01:01:33;7.10;;;5.70;;
42104;SDS011;70664;51.472;5.712;2023-06-24T01:04:03;6.73;;;5.80;;
42104;SDS011;70664;51.472;5.712;2023-06-24T01:06:29;6.25;;;5.35;;
42104;SDS011;70664;51.472;5.712;2023-06-24T01:08:59;6.25;;;5.65;;
42104;SDS011;70664;51.472;5.712;2023-06-24T01:11:27;6.45;;;5.32;;
42104;SDS011;70664;51.472;5.712;2023-06-24T01:13:56;6.57;;;5.72;;
42104;SDS011;70664;51.472;5.712;2023-06-24T01:16:32;6.55;;;5.30;;
42104;SDS011;70664;51.472;5.712;2023-06-24T01:34:06;6.93;;;5.78;;
42104;SDS011;70664;51.472;5.712;2023-06-24T01:42:51;6.70;;;5.63;;
42104;SDS011;70664;51.472;5.712;2023-06-24T01:45:21;6.28;;;5.68;;
42104;SDS011;70664;51.472;5.712;2023-06-24T01:47:54;6.55;;;5.60;;
42104;SDS011;70664;51.472;5.712;2023-06-24T01:50:54;7.97;;;5.95;;
42104;SDS011;70664;51.472;5.712;2023-06-24T01:53:34;9.10;;;5.82;;
42104;SDS011;70664;51.472;5.712;2023-06-24T01:56:03;6.57;;;5.85;;
42104;SDS011;70664;51.472;5.712;2023-06-24T01:58:32;6.32;;;5.70;;
42104;SDS011;70664;51.472;5.712;2023-06-24T02:01:01;5.90;;;5.30;;
42104;SDS011;70664;51.472;5.712;2023-06-24T02:03:28;6.75;;;5.78;;
42104;SDS011;70664;51.472;5.712;2023-06-24T02:05:57;7.32;;;5.80;;
42104;SDS011;70664;51.472;5.712;2023-06-24T02:08:24;8.77;;;5.78;;
42104;SDS011;70664;51.472;5.712;2023-06-24T02:10:54;6.30;;;5.70;;
42104;SDS011;70664;51.472;5.712;2023-06-24T02:13:22;8.43;;;5.68;;
42104;SDS011;70664;51.472;5.712;2023-06-24T02:15:49;6.97;;;5.95;;
42104;SDS011;70664;51.472;5.712;2023-06-24T02:18:16;6.80;;;6.20;;
42104;SDS011;70664;51.472;5.712;2023-06-24T02:20:45;5.88;;;5.32;;
42104;SDS011;70664;51.472;5.712;2023-06-24T02:23:13;6.50;;;5.80;;
42104;SDS011;70664;51.472;5.712;2023-06-24T02:25:39;6.78;;;6.00;;
42104;SDS011;70664;51.472;5.712;2023-06-24T02:28:07;8.20;;;5.90;;
42104;SDS011;70664;51.472;5.712;2023-06-24T02:30:37;7.38;;;5.60;;
42104;SDS011;70664;51.472;5.712;2023-06-24T02:33:04;6.65;;;6.05;;
42104;SDS011;70664;51.472;5.712;2023-06-24T02:35:31;6.28;;;5.68;;
42104;SDS011;70664;51.472;5.712;2023-06-24T02:37:57;7.75;;;5.90;;
42104;SDS011;70664;51.472;5.712;2023-06-24T02:40:23;6.78;;;5.93;;
42104;SDS011;70664;51.472;5.712;2023-06-24T02:42:50;6.10;;;5.50;;
42104;SDS011;70664;51.472;5.712;2023-06-24T02:45:16;6.53;;;5.90;;
42104;SDS011;70664;51.472;5.712;2023-06-24T02:47:43;7.03;;;5.75;;
42104;SDS011;70664;51.472;5.712;2023-06-24T02:50:12;6.65;;;6.03;;
42104;SDS011;70664;51.472;5.712;2023-06-24T02:52:39;6.40;;;5.80;;
42104;SDS011;70664;51.472;5.712;2023-06-24T02:55:05;6.30;;;5.70;;
42104;SDS011;70664;51.472;5.712;2023-06-24T02:57:33;6.45;;;5.80;;
42104;SDS011;70664;51.472;5.712;2023-06-24T03:00:01;6.38;;;5.20;;
42104;SDS011;70664;51.472;5.712;2023-06-24T03:02:30;6.80;;;6.13;;
42104;SDS011;70664;51.472;5.712;2023-06-24T03:04:57;6.15;;;5.55;;
42104;SDS011;70664;51.472;5.712;2023-06-24T03:07:26;6.82;;;5.35;;
42104;SDS011;70664;51.472;5.712;2023-06-24T03:09:52;7.15;;;5.70;;
42104;SDS011;70664;51.472;5.712;2023-06-24T03:12:18;6.45;;;5.75;;
42104;SDS011;70664;51.472;5.712;2023-06-24T03:14:44;7.00;;;5.57;;
42104;SDS011;70664;51.472;5.712;2023-06-24T03:17:09;6.05;;;5.53;;
42104;SDS011;70664;51.472;5.712;2023-06-24T03:19:36;6.50;;;5.85;;
42104;SDS011;70664;51.472;5.712;2023-06-24T03:22:03;5.90;;;5.40;;
42104;SDS011;70664;51.472;5.712;2023-06-24T03:24:29;6.22;;;5.57;;
42104;SDS011;70664;51.472;5.712;2023-06-24T03:26:55;6.50;;;5.90;;
42104;SDS011;70664;51.472;5.712;2023-06-24T03:29:21;6.90;;;5.75;;
42104;SDS011;70664;51.472;5.712;2023-06-24T03:31:50;6.88;;;5.72;;
42104;SDS011;70664;51.472;5.712;2023-06-24T03:34:16;6.38;;;5.55;;
42104;SDS011;70664;51.472;5.712;2023-06-24T03:36:42;6.53;;;5.93;;
42104;SDS011;70664;51.472;5.712;2023-06-24T03:39:08;6.60;;;5.97;;
42104;SDS011;70664;51.472;5.712;2023-06-24T03:41:34;6.95;;;6.13;;
42104;SDS011;70664;51.472;5.712;2023-06-24T03:44:00;6.53;;;5.70;;
42104;SDS011;70664;51.472;5.712;2023-06-24T03:46:26;7.28;;;6.03;;
42104;SDS011;70664;51.472;5.712;2023-06-24T03:48:57;6.30;;;5.40;;
42104;SDS011;70664;51.472;5.712;2023-06-24T03:51:23;6.95;;;5.55;;
42104;SDS011;70664;51.472;5.712;2023-06-24T03:53:49;6.55;;;5.70;;
42104;SDS011;70664;51.472;5.712;2023-06-24T03:56:16;6.45;;;5.85;;
42104;SDS011;70664;51.472;5.712;2023-06-24T03:58:42;6.40;;;5.78;;
42104;SDS011;70664;51.472;5.712;2023-06-24T04:01:08;7.10;;;5.70;;
42104;SDS011;70664;51.472;5.712;2023-06-24T04:03:34;6.93;;;6.03;;
42104;SDS011;70664;51.472;5.712;2023-06-24T04:06:01;6.78;;;5.85;;
42104;SDS011;70664;51.472;5.712;2023-06-24T04:08:26;6.70;;;6.00;;
42104;SDS011;70664;51.472;5.712;2023-06-24T04:10:54;6.28;;;5.68;;
42104;SDS011;70664;51.472;5.712;2023-06-24T04:13:21;6.38;;;5.78;;
42104;SDS011;70664;51.472;5.712;2023-06-24T04:15:47;6.25;;;5.65;;
42104;SDS011;70664;51.472;5.712;2023-06-24T04:18:12;6.57;;;5.55;;
42104;SDS011;70664;51.472;5.712;2023-06-24T04:20:39;5.88;;;5.28;;
42104;SDS011;70664;51.472;5.712;2023-06-24T04:23:05;6.10;;;5.38;;
42104;SDS011;70664;51.472;5.712;2023-06-24T04:25:34;6.28;;;5.68;;
42104;SDS011;70664;51.472;5.712;2023-06-24T04:28:00;5.80;;;5.15;;
42104;SDS011;70664;51.472;5.712;2023-06-24T04:30:27;6.93;;;6.13;;
42104;SDS011;70664;51.472;5.712;2023-06-24T04:32:52;6.60;;;6.00;;
42104;SDS011;70664;51.472;5.712;2023-06-24T04:35:18;6.30;;;5.70;;
42104;SDS011;70664;51.472;5.712;2023-06-24T04:37:44;6.05;;;5.25;;
42104;SDS011;70664;51.472;5.712;2023-06-24T04:40:10;7.47;;;5.45;;
42104;SDS011;70664;51.472;5.712;2023-06-24T04:42:37;5.80;;;5.20;;
42104;SDS011;70664;51.472;5.712;2023-06-24T04:45:03;6.97;;;5.80;;
42104;SDS011;70664;51.472;5.712;2023-06-24T04:47:30;6.43;;;5.38;;
42104;SDS011;70664;51.472;5.712;2023-06-24T04:49:56;5.57;;;5.07;;
42104;SDS011;70664;51.472;5.712;2023-06-24T04:52:23;5.65;;;5.15;;
42104;SDS011;70664;51.472;5.712;2023-06-24T04:54:49;6.30;;;5.70;;
42104;SDS011;70664;51.472;5.712;2023-06-24T04:57:28;7.47;;;5.55;;
42104;SDS011;70664;51.472;5.712;2023-06-24T04:59:56;6.32;;;5.72;;
42104;SDS011;70664;51.472;5.712;2023-06-24T05:02:23;6.38;;;5.35;;
42104;SDS011;70664;51.472;5.712;2023-06-24T05:04:50;6.05;;;5.47;;
42104;SDS011;70664;51.472;5.712;2023-06-24T05:07:17;5.97;;;5.38;;
42104;SDS011;70664;51.472;5.712;2023-06-24T05:09:45;5.88;;;5.38;;
42104;SDS011;70664;51.472;5.712;2023-06-24T05:12:12;5.72;;;5.22;;
42104;SDS011;70664;51.472;5.712;2023-06-24T05:14:38;6.13;;;5.53;;
42104;SDS011;70664;51.472;5.712;2023-06-24T05:17:04;5.80;;;5.20;;
42104;SDS011;70664;51.472;5.712;2023-06-24T05:19:30;6.15;;;5.28;;
42104;SDS011;70664;51.472;5.712;2023-06-24T05:21:56;6.43;;;5.43;;
42104;SDS011;70664;51.472;5.712;2023-06-24T05:24:22;6.30;;;5.70;;
42104;SDS011;70664;51.472;5.712;2023-06-24T05:26:48;6.32;;;5.40;;
42104;SDS011;70664;51.472;5.712;2023-06-24T05:29:16;6.00;;;5.40;;
42104;SDS011;70664;51.472;5.712;2023-06-24T05:31:43;6.38;;;5.75;;
42104;SDS011;70664;51.472;5.712;2023-06-24T05:34:09;6.55;;;5.53;;
42104;SDS011;70664;51.472;5.712;2023-06-24T05:36:35;6.10;;;5.50;;
42104;SDS011;70664;51.472;5.712;2023-06-24T05:39:01;6.05;;;5.45;;
42104;SDS011;70664;51.472;5.712;2023-06-24T05:41:27;6.10;;;5.50;;
42104;SDS011;70664;51.472;5.712;2023-06-24T05:44:02;6.28;;;5.30;;
42104;SDS011;70664;51.472;5.712;2023-06-24T05:46:31;6.00;;;5.40;;
42104;SDS011;70664;51.472;5.712;2023-06-24T05:48:57;5.50;;;5.00;;
42104;SDS011;70664;51.472;5.712;2023-06-24T05:51:23;5.88;;;5.10;;
42104;SDS011;70664;51.472;5.712;2023-06-24T05:53:48;6.05;;;5.38;;
42104;SDS011;70664;51.472;5.712;2023-06-24T05:56:14;6.15;;;5.55;;
42104;SDS011;70664;51.472;5.712;2023-06-24T05:58:40;5.45;;;4.95;;
42104;SDS011;70664;51.472;5.712;2023-06-24T06:01:07;5.60;;;5.10;;
42104;SDS011;70664;51.472;5.712;2023-06-24T06:03:34;7.03;;;5.25;;
42104;SDS011;70664;51.472;5.712;2023-06-24T06:06:00;6.82;;;5.80;;
42104;SDS011;70664;51.472;5.712;2023-06-24T06:08:26;5.78;;;5.13;;
42104;SDS011;70664;51.472;5.712;2023-06-24T06:10:52;6.38;;;5.60;;
42104;SDS011;70664;51.472;5.712;2023-06-24T06:13:18;5.95;;;5.13;;
42104;SDS011;70664;51.472;5.712;2023-06-24T06:15:44;5.70;;;5.20;;
42104;SDS011;70664;51.472;5.712;2023-06-24T06:18:09;5.80;;;5.20;;
42104;SDS011;70664;51.472;5.712;2023-06-24T06:20:35;5.88;;;5.03;;
42104;SDS011;70664;51.472;5.712;2023-06-24T06:23:01;5.72;;;5.00;;
42104;SDS011;70664;51.472;5.712;2023-06-24T06:25:27;5.65;;;4.97;;
42104;SDS011;70664;51.472;5.712;2023-06-24T06:27:53;5.25;;;4.60;;
42104;SDS011;70664;51.472;5.712;2023-06-24T06:30:19;5.20;;;4.70;;
42104;SDS011;70664;51.472;5.712;2023-06-24T06:32:44;6.22;;;5.38;;
42104;SDS011;70664;51.472;5.712;2023-06-24T06:35:10;7.35;;;5.50;;
42104;SDS011;70664;51.472;5.712;2023-06-24T06:37:36;5.95;;;5.38;;
42104;SDS011;70664;51.472;5.712;2023-06-24T06:40:02;5.55;;;5.00;;
42104;SDS011;70664;51.472;5.712;2023-06-24T06:42:29;6.43;;;5.15;;
42104;SDS011;70664;51.472;5.712;2023-06-24T06:44:55;7.50;;;5.32;;
42104;SDS011;70664;51.472;5.712;2023-06-24T06:47:20;7.47;;;5.70;;
42104;SDS011;70664;51.472;5.712;2023-06-24T06:49:47;8.00;;;5.30;;
42104;SDS011;70664;51.472;5.712;2023-06-24T06:52:13;7.53;;;5.07;;
42104;SDS011;70664;51.472;5.712;2023-06-24T06:54:39;5.95;;;4.43;;
42104;SDS011;70664;51.472;5.712;2023-06-24T06:57:05;8.18;;;5.38;;
42104;SDS011;70664;51.472;5.712;2023-06-24T06:59:31;5.13;;;4.63;;
42104;SDS011;70664;51.472;5.712;2023-06-24T07:01:57;6.85;;;4.35;;
42104;SDS011;70664;51.472;5.712;2023-06-24T07:04:23;5.82;;;3.85;;
42104;SDS011;70664;51.472;5.712;2023-06-24T07:06:49;6.50;;;4.25;;
42104;SDS011;70664;51.472;5.712;2023-06-24T07:09:15;5.68;;;4.20;;
42104;SDS011;70664;51.472;5.712;2023-06-24T07:11:42;5.28;;;3.78;;
42104;SDS011;70664;51.472;5.712;2023-06-24T07:14:08;6.88;;;3.80;;
42104;SDS011;70664;51.472;5.712;2023-06-24T07:16:34;5.07;;;3.70;;
42104;SDS011;70664;51.472;5.712;2023-06-24T07:19:00;4.72;;;3.25;;
42104;SDS011;70664;51.472;5.712;2023-06-24T07:21:26;6.53;;;3.38;;
42104;SDS011;70664;51.472;5.712;2023-06-24T07:23:52;6.13;;;3.17;;
42104;SDS011;70664;51.472;5.712;2023-06-24T07:26:18;4.70;;;3.05;;
42104;SDS011;70664;51.472;5.712;2023-06-24T07:28:44;5.03;;;3.45;;
42104;SDS011;70664;51.472;5.712;2023-06-24T07:31:11;4.22;;;2.95;;
42104;SDS011;70664;51.472;5.712;2023-06-24T07:33:37;4.65;;;3.25;;
42104;SDS011;70664;51.472;5.712;2023-06-24T07:36:03;8.50;;;3.42;;
42104;SDS011;70664;51.472;5.712;2023-06-24T07:38:29;5.32;;;3.33;;
42104;SDS011;70664;51.472;5.712;2023-06-24T07:40:55;6.18;;;3.25;;
42104;SDS011;70664;51.472;5.712;2023-06-24T07:43:21;4.32;;;3.17;;
42104;SDS011;70664;51.472;5.712;2023-06-24T07:45:47;6.03;;;2.97;;
42104;SDS011;70664;51.472;5.712;2023-06-24T07:48:13;4.95;;;3.03;;
42104;SDS011;70664;51.472;5.712;2023-06-24T07:50:39;4.57;;;3.00;;
42104;SDS011;70664;51.472;5.712;2023-06-24T07:53:05;4.65;;;3.00;;
42104;SDS011;70664;51.472;5.712;2023-06-24T07:55:31;4.95;;;3.03;;
42104;SDS011;70664;51.472;5.712;2023-06-24T07:57:57;5.78;;;2.83;;
42104;SDS011;70664;51.472;5.712;2023-06-24T08:00:27;4.10;;;3.05;;
42104;SDS011;70664;51.472;5.712;2023-06-24T08:02:53;4.95;;;2.85;;
42104;SDS011;70664;51.472;5.712;2023-06-24T08:05:20;4.53;;;2.83;;
42104;SDS011;70664;51.472;5.712;2023-06-24T08:07:46;4.15;;;2.80;;
42104;SDS011;70664;51.472;5.712;2023-06-24T08:10:12;6.22;;;2.97;;
42104;SDS011;70664;51.472;5.712;2023-06-24T08:12:38;3.90;;;2.80;;
42104;SDS011;70664;51.472;5.712;2023-06-24T08:15:04;3.67;;;2.80;;
42104;SDS011;70664;51.472;5.712;2023-06-24T08:17:30;5.32;;;2.67;;
42104;SDS011;70664;51.472;5.712;2023-06-24T08:19:56;4.95;;;3.30;;
42104;SDS011;70664;51.472;5.712;2023-06-24T08:22:22;4.88;;;3.05;;
42104;SDS011;70664;51.472;5.712;2023-06-24T08:24:48;4.97;;;3.05;;
42104;SDS011;70664;51.472;5.712;2023-06-24T08:27:13;5.60;;;2.92;;
42104;SDS011;70664;51.472;5.712;2023-06-24T08:29:39;3.75;;;2.90;;
42104;SDS011;70664;51.472;5.712;2023-06-24T08:32:05;4.90;;;2.75;;
42104;SDS011;70664;51.472;5.712;2023-06-24T08:34:32;8.70;;;2.90;;
42104;SDS011;70664;51.472;5.712;2023-06-24T08:36:58;6.97;;;2.90;;
42104;SDS011;70664;51.472;5.712;2023-06-24T08:39:24;6.95;;;2.58;;
42104;SDS011;70664;51.472;5.712;2023-06-24T08:41:50;6.72;;;2.97;;
42104;SDS011;70664;51.472;5.712;2023-06-24T08:44:16;5.65;;;2.85;;
42104;SDS011;70664;51.472;5.712;2023-06-24T08:46:42;4.82;;;2.50;;
42104;SDS011;70664;51.472;5.712;2023-06-24T08:51:49;5.00;;;2.67;;
42104;SDS011;70664;51.472;5.712;2023-06-24T08:54:27;6.20;;;2.70;;
42104;SDS011;70664;51.472;5.712;2023-06-24T08:56:54;3.53;;;2.45;;
42104;SDS011;70664;51.472;5.712;2023-06-24T08:59:20;6.30;;;3.03;;
42104;SDS011;70664;51.472;5.712;2023-06-24T09:01:46;6.20;;;2.70;;
42104;SDS011;70664;51.472;5.712;2023-06-24T09:04:12;5.63;;;2.80;;
42104;SDS011;70664;51.472;5.712;2023-06-24T09:06:38;5.80;;;2.83;;
42104;SDS011;70664;51.472;5.712;2023-06-24T09:09:04;3.42;;;2.47;;
42104;SDS011;70664;51.472;5.712;2023-06-24T09:11:41;5.38;;;2.63;;
42104;SDS011;70664;51.472;5.712;2023-06-24T09:14:15;3.88;;;2.90;;
42104;SDS011;70664;51.472;5.712;2023-06-24T09:16:41;5.15;;;2.45;;
42104;SDS011;70664;51.472;5.712;2023-06-24T09:19:19;3.50;;;2.53;;
42104;SDS011;70664;51.472;5.712;2023-06-24T09:21:50;3.05;;;2.50;;
42104;SDS011;70664;51.472;5.712;2023-06-24T09:24:19;3.40;;;2.60;;
42104;SDS011;70664;51.472;5.712;2023-06-24T09:26:44;4.28;;;2.65;;
42104;SDS011;70664;51.472;5.712;2023-06-24T09:29:11;3.20;;;2.60;;
42104;SDS011;70664;51.472;5.712;2023-06-24T09:31:47;4.43;;;2.45;;
42104;SDS011;70664;51.472;5.712;2023-06-24T09:34:14;5.45;;;2.50;;
42104;SDS011;70664;51.472;5.712;2023-06-24T09:36:43;3.40;;;2.55;;
42104;SDS011;70664;51.472;5.712;2023-06-24T09:39:15;4.82;;;2.67;;
42104;SDS011;70664;51.472;5.712;2023-06-24T09:41:41;3.53;;;2.42;;
42104;SDS011;70664;51.472;5.712;2023-06-24T09:44:08;3.45;;;2.65;;
42104;SDS011;70664;51.472;5.712;2023-06-24T09:46:36;5.28;;;2.67;;
42104;SDS011;70664;51.472;5.712;2023-06-24T09:49:06;4.90;;;2.70;;
42104;SDS011;70664;51.472;5.712;2023-06-24T09:51:33;4.63;;;2.28;;
42104;SDS011;70664;51.472;5.712;2023-06-24T09:54:06;3.90;;;2.50;;
42104;SDS011;70664;51.472;5.712;2023-06-24T09:56:36;5.07;;;2.50;;
42104;SDS011;70664;51.472;5.712;2023-06-24T09:59:05;2.83;;;2.40;;
42104;SDS011;70664;51.472;5.712;2023-06-24T10:01:32;4.93;;;2.47;;
42104;SDS011;70664;51.472;5.712;2023-06-24T10:04:04;6.22;;;2.50;;
42104;SDS011;70664;51.472;5.712;2023-06-24T10:06:32;3.60;;;2.85;;
42104;SDS011;70664;51.472;5.712;2023-06-24T10:08:59;14.55;;;3.10;;
42104;SDS011;70664;51.472;5.712;2023-06-24T10:11:26;5.00;;;3.22;;
42104;SDS011;70664;51.472;5.712;2023-06-24T10:13:52;8.00;;;2.90;;
42104;SDS011;70664;51.472;5.712;2023-06-24T10:16:19;6.68;;;3.75;;
42104;SDS011;70664;51.472;5.712;2023-06-24T10:18:45;5.57;;;3.50;;
42104;SDS011;70664;51.472;5.712;2023-06-24T10:21:12;6.18;;;3.42;;
42104;SDS011;70664;51.472;5.712;2023-06-24T10:23:41;9.65;;;3.53;;
42104;SDS011;70664;51.472;5.712;2023-06-24T10:26:27;11.13;;;4.15;;
42104;SDS011;70664;51.472;5.712;2023-06-24T10:29:16;5.97;;;3.58;;
42104;SDS011;70664;51.472;5.712;2023-06-24T10:34:27;11.85;;;3.83;;
42104;SDS011;70664;51.472;5.712;2023-06-24T10:47:41;8.95;;;4.68;;
42104;SDS011;70664;51.472;5.712;2023-06-24T10:50:17;6.35;;;3.55;;
42104;SDS011;70664;51.472;5.712;2023-06-24T10:52:46;12.15;;;4.43;;
42104;SDS011;70664;51.472;5.712;2023-06-24T10:55:18;10.13;;;4.35;;
42104;SDS011;70664;51.472;5.712;2023-06-24T10:57:44;8.32;;;4.40;;
42104;SDS011;70664;51.472;5.712;2023-06-24T11:00:11;11.68;;;4.45;;
42104;SDS011;70664;51.472;5.712;2023-06-24T11:02:39;10.38;;;4.70;;
42104;SDS011;70664;51.472;5.712;2023-06-24T11:05:05;13.82;;;4.45;;
42104;SDS011;70664;51.472;5.712;2023-06-24T11:07:35;9.80;;;4.30;;
42104;SDS011;70664;51.472;5.712;2023-06-24T11:12:36;8.93;;;3.97;;
42104;SDS011;70664;51.472;5.712;2023-06-24T11:15:04;6.18;;;3.63;;
42104;SDS011;70664;51.472;5.712;2023-06-24T11:17:33;8.57;;;3.75;;
42104;SDS011;70664;51.472;5.712;2023-06-24T11:20:00;6.28;;;3.78;;
42104;SDS011;70664;51.472;5.712;2023-06-24T11:22:27;7.38;;;3.47;;
42104;SDS011;70664;51.472;5.712;2023-06-24T11:24:53;7.45;;;3.50;;
42104;SDS011;70664;51.472;5.712;2023-06-24T11:27:27;10.73;;;3.90;;
42104;SDS011;70664;51.472;5.712;2023-06-24T11:29:57;7.30;;;3.65;;
42104;SDS011;70664;51.472;5.712;2023-06-24T11:32:36;7.13;;;3.72;;
42104;SDS011;70664;51.472;5.712;2023-06-24T11:35:10;8.77;;;3.47;;
42104;SDS011;70664;51.472;5.712;2023-06-24T11:37:44;8.80;;;3.50;;
42104;SDS011;70664;51.472;5.712;2023-06-24T11:40:13;7.28;;;3.53;;
42104;SDS011;70664;51.472;5.712;2023-06-24T11:42:42;12.82;;;3.85;;
42104;SDS011;70664;51.472;5.712;2023-06-24T11:45:13;6.18;;;3.50;;
42104;SDS011;70664;51.472;5.712;2023-06-24T11:47:40;7.50;;;3.35;;
42104;SDS011;70664;51.472;5.712;2023-06-24T11:50:06;11.07;;;3.33;;
42104;SDS011;70664;51.472;5.712;2023-06-24T11:55:12;7.13;;;3.58;;
42104;SDS011;70664;51.472;5.712;2023-06-24T11:57:57;8.82;;;3.83;;
42104;SDS011;70664;51.472;5.712;2023-06-24T12:00:36;9.73;;;3.47;;
42104;SDS011;70664;51.472;5.712;2023-06-24T12:03:06;5.47;;;3.05;;
42104;SDS011;70664;51.472;5.712;2023-06-24T12:05:35;7.82;;;3.47;;
42104;SDS011;70664;51.472;5.712;2023-06-24T12:08:02;9.70;;;3.47;;
42104;SDS011;70664;51.472;5.712;2023-06-24T12:10:34;6.68;;;3.42;;
42104;SDS011;70664;51.472;5.712;2023-06-24T12:13:01;7.25;;;3.75;;
42104;SDS011;70664;51.472;5.712;2023-06-24T12:15:30;6.53;;;3.80;;
42104;SDS011;70664;51.472;5.712;2023-06-24T12:17:57;5.05;;;3.53;;
42104;SDS011;70664;51.472;5.712;2023-06-24T12:20:26;7.00;;;4.05;;
42104;SDS011;70664;51.472;5.712;2023-06-24T12:22:53;8.20;;;3.85;;
42104;SDS011;70664;51.472;5.712;2023-06-24T12:25:19;6.30;;;4.07;;
42104;SDS011;70664;51.472;5.712;2023-06-24T12:27:44;6.97;;;3.47;;
42104;SDS011;70664;51.472;5.712;2023-06-24T12:30:11;7.38;;;3.85;;
42104;SDS011;70664;51.472;5.712;2023-06-24T12:32:37;6.43;;;3.70;;
42104;SDS011;70664;51.472;5.712;2023-06-24T12:35:04;8.30;;;3.50;;
42104;SDS011;70664;51.472;5.712;2023-06-24T12:37:31;5.45;;;3.53;;
42104;SDS011;70664;51.472;5.712;2023-06-24T12:39:58;6.03;;;3.47;;
42104;SDS011;70664;51.472;5.712;2023-06-24T12:42:28;6.25;;;3.60;;
42104;SDS011;70664;51.472;5.712;2023-06-24T12:44:55;9.13;;;3.88;;
42104;SDS011;70664;51.472;5.712;2023-06-24T12:47:21;6.22;;;3.40;;
42104;SDS011;70664;51.472;5.712;2023-06-24T12:49:48;5.57;;;3.30;;
42104;SDS011;70664;51.472;5.712;2023-06-24T12:52:14;6.40;;;3.30;;
42104;SDS011;70664;51.472;5.712;2023-06-24T12:54:41;5.43;;;3.28;;
42104;SDS011;70664;51.472;5.712;2023-06-24T12:57:07;10.05;;;3.83;;
42104;SDS011;70664;51.472;5.712;2023-06-24T12:59:33;7.15;;;3.38;;
42104;SDS011;70664;51.472;5.712;2023-06-24T13:01:59;10.60;;;3.70;;
42104;SDS011;70664;51.472;5.712;2023-06-24T13:04:25;6.80;;;3.50;;
42104;SDS011;70664;51.472;5.712;2023-06-24T13:06:52;7.35;;;3.53;;
42104;SDS011;70664;51.472;5.712;2023-06-24T13:09:18;6.22;;;3.50;;
42104;SDS011;70664;51.472;5.712;2023-06-24T13:11:44;6.65;;;3.47;;
42104;SDS011;70664;51.472;5.712;2023-06-24T13:14:10;5.68;;;2.95;;
42104;SDS011;70664;51.472;5.712;2023-06-24T13:16:37;7.47;;;3.33;;
42104;SDS011;70664;51.472;5.712;2023-06-24T13:19:03;9.00;;;3.22;;
42104;SDS011;70664;51.472;5.712;2023-06-24T13:21:29;7.10;;;3.40;;
42104;SDS011;70664;51.472;5.712;2023-06-24T13:23:55;8.65;;;3.50;;
42104;SDS011;70664;51.472;5.712;2023-06-24T13:26:21;6.40;;;3.20;;
42104;SDS011;70664;51.472;5.712;2023-06-24T13:28:47;6.88;;;3.10;;
42104;SDS011;70664;51.472;5.712;2023-06-24T13:31:14;7.07;;;3.60;;
42104;SDS011;70664;51.472;5.712;2023-06-24T13:33:40;5.82;;;3.30;;
42104;SDS011;70664;51.472;5.712;2023-06-24T13:36:07;7.13;;;3.45;;
42104;SDS011;70664;51.472;5.712;2023-06-24T13:38:36;6.72;;;3.17;;
42104;SDS011;70664;51.472;5.712;2023-06-24T13:41:02;5.60;;;2.97;;
42104;SDS011;70664;51.472;5.712;2023-06-24T13:43:28;5.50;;;3.22;;
42104;SDS011;70664;51.472;5.712;2023-06-24T13:45:54;6.80;;;3.13;;
42104;SDS011;70664;51.472;5.712;2023-06-24T13:48:20;5.80;;;2.95;;
42104;SDS011;70664;51.472;5.712;2023-06-24T13:50:46;7.95;;;3.10;;
42104;SDS011;70664;51.472;5.712;2023-06-24T13:53:12;5.18;;;3.03;;
42104;SDS011;70664;51.472;5.712;2023-06-24T13:55:38;7.45;;;3.25;;
42104;SDS011;70664;51.472;5.712;2023-06-24T13:58:03;7.82;;;3.28;;
42104;SDS011;70664;51.472;5.712;2023-06-24T14:00:30;6.63;;;3.13;;
42104;SDS011;70664;51.472;5.712;2023-06-24T14:02:55;7.20;;;3.25;;
42104;SDS011;70664;51.472;5.712;2023-06-24T14:05:21;8.10;;;3.15;;
42104;SDS011;70664;51.472;5.712;2023-06-24T14:07:47;8.07;;;3.22;;
42104;SDS011;70664;51.472;5.712;2023-06-24T14:10:13;7.20;;;3.35;;
42104;SDS011;70664;51.472;5.712;2023-06-24T14:12:40;7.65;;;3.63;;
42104;SDS011;70664;51.472;5.712;2023-06-24T14:15:07;4.93;;;3.38;;
42104;SDS011;70664;51.472;5.712;2023-06-24T14:17:34;3.63;;;2.97;;
42104;SDS011;70664;51.472;5.712;2023-06-24T14:20:00;5.88;;;3.17;;
42104;SDS011;70664;51.472;5.712;2023-06-24T14:22:26;7.65;;;3.33;;
42104;SDS011;70664;51.472;5.712;2023-06-24T14:24:52;6.38;;;3.15;;
42104;SDS011;70664;51.472;5.712;2023-06-24T14:27:17;7.22;;;3.70;;
42104;SDS011;70664;51.472;5.712;2023-06-24T14:29:43;7.88;;;3.33;;
42104;SDS011;70664;51.472;5.712;2023-06-24T14:32:09;5.45;;;3.13;;
42104;SDS011;70664;51.472;5.712;2023-06-24T14:34:35;9.35;;;3.35;;
42104;SDS011;70664;51.472;5.712;2023-06-24T14:37:01;6.03;;;3.30;;
42104;SDS011;70664;51.472;5.712;2023-06-24T14:39:27;7.15;;;3.17;;
42104;SDS011;70664;51.472;5.712;2023-06-24T14:41:53;14.13;;;3.47;;
42104;SDS011;70664;51.472;5.712;2023-06-24T14:44:19;6.57;;;3.10;;
42104;SDS011;70664;51.472;5.712;2023-06-24T14:46:45;11.10;;;3.63;;
42104;SDS011;70664;51.472;5.712;2023-06-24T14:49:10;10.73;;;3.03;;
42104;SDS011;70664;51.472;5.712;2023-06-24T14:51:36;12.00;;;3.22;;
42104;SDS011;70664;51.472;5.712;2023-06-24T14:54:02;11.57;;;3.42;;
42104;SDS011;70664;51.472;5.712;2023-06-24T14:56:28;10.63;;;4.00;;
42104;SDS011;70664;51.472;5.712;2023-06-24T14:58:53;10.43;;;3.47;;
42104;SDS011;70664;51.472;5.712;2023-06-24T15:01:19;7.30;;;3.55;;
42104;SDS011;70664;51.472;5.712;2023-06-24T15:03:45;10.45;;;3.70;;
42104;SDS011;70664;51.472;5.712;2023-06-24T15:06:11;7.25;;;3.40;;
42104;SDS011;70664;51.472;5.712;2023-06-24T15:08:37;10.35;;;3.15;;
42104;SDS011;70664;51.472;5.712;2023-06-24T15:11:03;11.48;;;3.67;;
42104;SDS011;70664;51.472;5.712;2023-06-24T15:13:29;5.72;;;3.35;;
42104;SDS011;70664;51.472;5.712;2023-06-24T15:15:55;8.93;;;3.38;;
42104;SDS011;70664;51.472;5.712;2023-06-24T15:18:21;6.95;;;2.95;;
42104;SDS011;70664;51.472;5.712;2023-06-24T15:20:50;6.10;;;3.38;;
42104;SDS011;70664;51.472;5.712;2023-06-24T15:23:16;7.85;;;3.22;;
42104;SDS011;70664;51.472;5.712;2023-06-24T15:25:41;8.13;;;3.75;;
42104;SDS011;70664;51.472;5.712;2023-06-24T15:28:07;6.93;;;3.58;;
42104;SDS011;70664;51.472;5.712;2023-06-24T15:30:33;7.93;;;3.50;;